sensor_id;sensor_type;location;lat;lon;timestamp;P1;durP1;ratioP1;P2;durP2;ratioP2
33876;SDS011;20166;51.738;7.158;2023-08-06T00:02:22;9.20;;;6.57;;
33876;SDS011;20166;51.738;7.158;2023-08-06T00:05:08;11.80;;;8.07;;
33876;SDS011;20166;51.738;7.158;2023-08-06T00:07:55;11.93;;;7.07;;
33876;SDS011;20166;51.738;7.158;2023-08-06T00:10:41;12.17;;;7.17;;
33876;SDS011;20166;51.738;7.158;2023-08-06T00:13:27;10.80;;;6.97;;
33876;SDS011;20166;51.738;7.158;2023-08-06T00:16:14;10.33;;;6.93;;
33876;SDS011;20166;51.738;7.158;2023-08-06T00:19:02;11.60;;;6.90;;
33876;SDS011;20166;51.738;7.158;2023-08-06T00:21:48;9.93;;;7.27;;
33876;SDS011;20166;51.738;7.158;2023-08-06T00:24:35;11.27;;;7.37;;
33876;SDS011;20166;51.738;7.158;2023-08-06T00:27:21;10.87;;;7.30;;
33876;SDS011;20166;51.738;7.158;2023-08-06T00:30:08;11.77;;;7.57;;
33876;SDS011;20166;51.738;7.158;2023-08-06T00:32:55;12.23;;;7.87;;
33876;SDS011;20166;51.738;7.158;2023-08-06T00:35:42;12.50;;;7.40;;
33876;SDS011;20166;51.738;7.158;2023-08-06T00:38:29;12.20;;;7.13;;
33876;SDS011;20166;51.738;7.158;2023-08-06T00:41:15;11.43;;;8.00;;
33876;SDS011;20166;51.738;7.158;2023-08-06T00:44:02;14.57;;;8.77;;
33876;SDS011;20166;51.738;7.158;2023-08-06T00:46:48;12.40;;;8.00;;
33876;SDS011;20166;51.738;7.158;2023-08-06T00:49:35;15.80;;;8.30;;
33876;SDS011;20166;51.738;7.158;2023-08-06T00:52:24;12.80;;;7.87;;
33876;SDS011;20166;51.738;7.158;2023-08-06T00:55:10;14.57;;;8.00;;
33876;SDS011;20166;51.738;7.158;2023-08-06T00:57:57;13.37;;;7.50;;
33876;SDS011;20166;51.738;7.158;2023-08-06T01:00:43;12.70;;;8.23;;
33876;SDS011;20166;51.738;7.158;2023-08-06T01:03:30;12.83;;;8.50;;
33876;SDS011;20166;51.738;7.158;2023-08-06T01:06:17;11.63;;;7.80;;
33876;SDS011;20166;51.738;7.158;2023-08-06T01:09:14;11.03;;;7.80;;
33876;SDS011;20166;51.738;7.158;2023-08-06T01:12:09;9.53;;;7.70;;
33876;SDS011;20166;51.738;7.158;2023-08-06T01:15:07;13.77;;;7.50;;
33876;SDS011;20166;51.738;7.158;2023-08-06T01:18:18;15.03;;;8.53;;
33876;SDS011;20166;51.738;7.158;2023-08-06T01:21:06;13.57;;;9.23;;
33876;SDS011;20166;51.738;7.158;2023-08-06T01:23:53;14.20;;;9.00;;
33876;SDS011;20166;51.738;7.158;2023-08-06T01:26:42;12.13;;;8.63;;
33876;SDS011;20166;51.738;7.158;2023-08-06T01:29:35;13.77;;;8.23;;
33876;SDS011;20166;51.738;7.158;2023-08-06T01:32:24;12.80;;;9.13;;
33876;SDS011;20166;51.738;7.158;2023-08-06T01:35:12;11.80;;;8.37;;
33876;SDS011;20166;51.738;7.158;2023-08-06T01:38:03;12.37;;;8.77;;
33876;SDS011;20166;51.738;7.158;2023-08-06T01:40:49;12.07;;;8.70;;
33876;SDS011;20166;51.738;7.158;2023-08-06T01:43:36;15.30;;;9.07;;
33876;SDS011;20166;51.738;7.158;2023-08-06T01:46:22;14.37;;;8.57;;
33876;SDS011;20166;51.738;7.158;2023-08-06T01:49:08;12.23;;;8.57;;
33876;SDS011;20166;51.738;7.158;2023-08-06T01:51:55;13.53;;;9.50;;
33876;SDS011;20166;51.738;7.158;2023-08-06T01:54:43;11.40;;;8.50;;
33876;SDS011;20166;51.738;7.158;2023-08-06T01:57:29;14.87;;;9.23;;
33876;SDS011;20166;51.738;7.158;2023-08-06T02:00:16;14.97;;;9.87;;
33876;SDS011;20166;51.738;7.158;2023-08-06T02:03:02;12.17;;;8.70;;
33876;SDS011;20166;51.738;7.158;2023-08-06T02:05:49;12.40;;;8.87;;
33876;SDS011;20166;51.738;7.158;2023-08-06T02:08:39;15.63;;;8.87;;
33876;SDS011;20166;51.738;7.158;2023-08-06T02:11:27;15.67;;;9.30;;
33876;SDS011;20166;51.738;7.158;2023-08-06T02:14:13;12.80;;;9.20;;
33876;SDS011;20166;51.738;7.158;2023-08-06T02:17:00;14.47;;;9.40;;
33876;SDS011;20166;51.738;7.158;2023-08-06T02:19:46;11.97;;;8.70;;
33876;SDS011;20166;51.738;7.158;2023-08-06T02:22:32;13.47;;;8.50;;
33876;SDS011;20166;51.738;7.158;2023-08-06T02:25:19;15.23;;;8.47;;
33876;SDS011;20166;51.738;7.158;2023-08-06T02:28:06;14.27;;;9.07;;
33876;SDS011;20166;51.738;7.158;2023-08-06T02:30:53;14.33;;;8.87;;
33876;SDS011;20166;51.738;7.158;2023-08-06T02:33:40;12.93;;;8.50;;
33876;SDS011;20166;51.738;7.158;2023-08-06T02:36:26;12.30;;;8.17;;
33876;SDS011;20166;51.738;7.158;2023-08-06T02:39:14;12.83;;;8.70;;
33876;SDS011;20166;51.738;7.158;2023-08-06T02:42:00;16.87;;;9.10;;
33876;SDS011;20166;51.738;7.158;2023-08-06T02:44:49;13.23;;;9.27;;
33876;SDS011;20166;51.738;7.158;2023-08-06T02:47:35;14.43;;;9.10;;
33876;SDS011;20166;51.738;7.158;2023-08-06T02:50:21;20.03;;;8.73;;
33876;SDS011;20166;51.738;7.158;2023-08-06T02:53:08;20.53;;;8.77;;
33876;SDS011;20166;51.738;7.158;2023-08-06T02:55:55;11.40;;;8.40;;
33876;SDS011;20166;51.738;7.158;2023-08-06T02:58:41;12.70;;;8.80;;
33876;SDS011;20166;51.738;7.158;2023-08-06T03:01:29;12.23;;;8.50;;
33876;SDS011;20166;51.738;7.158;2023-08-06T03:04:15;13.20;;;8.63;;
33876;SDS011;20166;51.738;7.158;2023-08-06T03:07:03;15.53;;;8.37;;
33876;SDS011;20166;51.738;7.158;2023-08-06T03:09:50;12.47;;;7.90;;
33876;SDS011;20166;51.738;7.158;2023-08-06T03:12:36;11.90;;;8.50;;
33876;SDS011;20166;51.738;7.158;2023-08-06T03:15:23;12.10;;;7.73;;
33876;SDS011;20166;51.738;7.158;2023-08-06T03:18:10;12.90;;;8.23;;
33876;SDS011;20166;51.738;7.158;2023-08-06T03:20:57;11.03;;;7.10;;
33876;SDS011;20166;51.738;7.158;2023-08-06T03:23:43;11.17;;;7.40;;
33876;SDS011;20166;51.738;7.158;2023-08-06T03:26:32;14.67;;;7.67;;
33876;SDS011;20166;51.738;7.158;2023-08-06T03:29:19;10.33;;;7.67;;
33876;SDS011;20166;51.738;7.158;2023-08-06T03:32:06;10.67;;;7.43;;
33876;SDS011;20166;51.738;7.158;2023-08-06T03:34:55;10.17;;;7.40;;
33876;SDS011;20166;51.738;7.158;2023-08-06T03:37:41;11.73;;;8.13;;
33876;SDS011;20166;51.738;7.158;2023-08-06T03:40:27;13.47;;;7.80;;
33876;SDS011;20166;51.738;7.158;2023-08-06T03:43:14;10.80;;;7.37;;
33876;SDS011;20166;51.738;7.158;2023-08-06T03:46:00;10.53;;;7.90;;
33876;SDS011;20166;51.738;7.158;2023-08-06T03:48:46;11.03;;;7.63;;
33876;SDS011;20166;51.738;7.158;2023-08-06T03:51:34;12.27;;;7.03;;
33876;SDS011;20166;51.738;7.158;2023-08-06T03:54:21;13.07;;;7.47;;
33876;SDS011;20166;51.738;7.158;2023-08-06T03:57:07;14.27;;;7.43;;
33876;SDS011;20166;51.738;7.158;2023-08-06T03:59:54;12.30;;;7.77;;
33876;SDS011;20166;51.738;7.158;2023-08-06T04:02:40;11.90;;;7.43;;
33876;SDS011;20166;51.738;7.158;2023-08-06T04:05:27;11.63;;;7.50;;
33876;SDS011;20166;51.738;7.158;2023-08-06T04:08:18;12.97;;;7.37;;
33876;SDS011;20166;51.738;7.158;2023-08-06T04:11:04;10.43;;;7.40;;
33876;SDS011;20166;51.738;7.158;2023-08-06T04:13:51;12.73;;;7.70;;
33876;SDS011;20166;51.738;7.158;2023-08-06T04:16:39;9.80;;;7.53;;
33876;SDS011;20166;51.738;7.158;2023-08-06T04:19:26;9.80;;;7.33;;
33876;SDS011;20166;51.738;7.158;2023-08-06T04:22:12;9.57;;;7.07;;
33876;SDS011;20166;51.738;7.158;2023-08-06T04:25:00;9.40;;;6.87;;
33876;SDS011;20166;51.738;7.158;2023-08-06T04:27:46;9.67;;;6.53;;
33876;SDS011;20166;51.738;7.158;2023-08-06T04:30:32;9.33;;;6.80;;
33876;SDS011;20166;51.738;7.158;2023-08-06T04:33:19;9.33;;;6.77;;
33876;SDS011;20166;51.738;7.158;2023-08-06T04:36:06;10.77;;;7.27;;
33876;SDS011;20166;51.738;7.158;2023-08-06T04:38:53;13.13;;;6.97;;
33876;SDS011;20166;51.738;7.158;2023-08-06T04:41:40;12.03;;;6.77;;
33876;SDS011;20166;51.738;7.158;2023-08-06T04:44:27;9.10;;;7.20;;
33876;SDS011;20166;51.738;7.158;2023-08-06T04:47:14;8.33;;;7.13;;
33876;SDS011;20166;51.738;7.158;2023-08-06T04:50:02;11.70;;;7.37;;
33876;SDS011;20166;51.738;7.158;2023-08-06T04:52:50;8.90;;;7.10;;
33876;SDS011;20166;51.738;7.158;2023-08-06T04:55:36;9.10;;;7.00;;
33876;SDS011;20166;51.738;7.158;2023-08-06T04:58:24;15.57;;;7.23;;
33876;SDS011;20166;51.738;7.158;2023-08-06T05:01:10;8.80;;;6.27;;
33876;SDS011;20166;51.738;7.158;2023-08-06T05:03:56;8.87;;;7.10;;
33876;SDS011;20166;51.738;7.158;2023-08-06T05:06:42;12.53;;;7.67;;
33876;SDS011;20166;51.738;7.158;2023-08-06T05:09:29;13.77;;;7.73;;
33876;SDS011;20166;51.738;7.158;2023-08-06T05:12:15;10.50;;;7.17;;
33876;SDS011;20166;51.738;7.158;2023-08-06T05:15:04;11.33;;;7.40;;
33876;SDS011;20166;51.738;7.158;2023-08-06T05:17:50;14.03;;;7.77;;
33876;SDS011;20166;51.738;7.158;2023-08-06T05:20:38;11.47;;;7.70;;
33876;SDS011;20166;51.738;7.158;2023-08-06T05:23:25;11.47;;;7.10;;
33876;SDS011;20166;51.738;7.158;2023-08-06T05:26:12;10.10;;;7.37;;
33876;SDS011;20166;51.738;7.158;2023-08-06T05:29:00;9.00;;;7.37;;
33876;SDS011;20166;51.738;7.158;2023-08-06T05:31:48;10.63;;;7.20;;
33876;SDS011;20166;51.738;7.158;2023-08-06T05:34:34;10.07;;;7.20;;
33876;SDS011;20166;51.738;7.158;2023-08-06T05:37:20;10.07;;;7.20;;
33876;SDS011;20166;51.738;7.158;2023-08-06T05:40:07;11.73;;;7.00;;
33876;SDS011;20166;51.738;7.158;2023-08-06T05:42:54;10.60;;;7.20;;
33876;SDS011;20166;51.738;7.158;2023-08-06T05:45:43;8.13;;;6.23;;
33876;SDS011;20166;51.738;7.158;2023-08-06T05:48:33;10.47;;;6.80;;
33876;SDS011;20166;51.738;7.158;2023-08-06T05:51:19;8.77;;;6.97;;
33876;SDS011;20166;51.738;7.158;2023-08-06T05:54:05;9.47;;;7.10;;
33876;SDS011;20166;51.738;7.158;2023-08-06T05:56:52;12.87;;;7.23;;
33876;SDS011;20166;51.738;7.158;2023-08-06T05:59:39;11.30;;;6.97;;
33876;SDS011;20166;51.738;7.158;2023-08-06T06:02:26;9.70;;;6.87;;
33876;SDS011;20166;51.738;7.158;2023-08-06T06:05:14;9.50;;;7.33;;
33876;SDS011;20166;51.738;7.158;2023-08-06T06:08:01;11.33;;;7.90;;
33876;SDS011;20166;51.738;7.158;2023-08-06T06:10:47;11.60;;;8.00;;
33876;SDS011;20166;51.738;7.158;2023-08-06T06:13:34;11.93;;;7.50;;
33876;SDS011;20166;51.738;7.158;2023-08-06T06:16:21;12.17;;;7.70;;
33876;SDS011;20166;51.738;7.158;2023-08-06T06:19:07;12.70;;;7.80;;
33876;SDS011;20166;51.738;7.158;2023-08-06T06:21:55;9.07;;;7.10;;
33876;SDS011;20166;51.738;7.158;2023-08-06T06:24:43;10.93;;;7.97;;
33876;SDS011;20166;51.738;7.158;2023-08-06T06:27:29;12.10;;;8.00;;
33876;SDS011;20166;51.738;7.158;2023-08-06T06:30:15;10.63;;;7.40;;
33876;SDS011;20166;51.738;7.158;2023-08-06T06:33:02;11.10;;;7.70;;
33876;SDS011;20166;51.738;7.158;2023-08-06T06:35:48;13.53;;;8.00;;
33876;SDS011;20166;51.738;7.158;2023-08-06T06:38:36;9.77;;;7.70;;
33876;SDS011;20166;51.738;7.158;2023-08-06T06:41:23;12.57;;;7.67;;
33876;SDS011;20166;51.738;7.158;2023-08-06T06:44:09;15.27;;;8.73;;
33876;SDS011;20166;51.738;7.158;2023-08-06T06:46:55;10.40;;;7.70;;
33876;SDS011;20166;51.738;7.158;2023-08-06T06:49:42;9.73;;;8.10;;
33876;SDS011;20166;51.738;7.158;2023-08-06T06:52:29;11.23;;;7.23;;
33876;SDS011;20166;51.738;7.158;2023-08-06T06:55:17;13.37;;;7.90;;
33876;SDS011;20166;51.738;7.158;2023-08-06T06:58:04;13.00;;;7.93;;
33876;SDS011;20166;51.738;7.158;2023-08-06T07:00:50;8.37;;;7.13;;
33876;SDS011;20166;51.738;7.158;2023-08-06T07:03:36;10.33;;;7.87;;
33876;SDS011;20166;51.738;7.158;2023-08-06T07:06:23;11.10;;;7.93;;
33876;SDS011;20166;51.738;7.158;2023-08-06T07:09:09;9.63;;;7.57;;
33876;SDS011;20166;51.738;7.158;2023-08-06T07:11:57;14.23;;;7.43;;
33876;SDS011;20166;51.738;7.158;2023-08-06T07:14:43;9.90;;;7.10;;
33876;SDS011;20166;51.738;7.158;2023-08-06T07:17:30;11.73;;;7.90;;
33876;SDS011;20166;51.738;7.158;2023-08-06T07:20:16;12.77;;;7.60;;
33876;SDS011;20166;51.738;7.158;2023-08-06T07:23:02;12.43;;;8.27;;
33876;SDS011;20166;51.738;7.158;2023-08-06T07:25:52;11.40;;;8.53;;
33876;SDS011;20166;51.738;7.158;2023-08-06T07:28:40;10.87;;;7.13;;
33876;SDS011;20166;51.738;7.158;2023-08-06T07:31:27;9.40;;;7.50;;
33876;SDS011;20166;51.738;7.158;2023-08-06T07:34:13;10.20;;;7.33;;
33876;SDS011;20166;51.738;7.158;2023-08-06T07:37:00;8.53;;;6.40;;
33876;SDS011;20166;51.738;7.158;2023-08-06T07:39:47;6.67;;;5.97;;
33876;SDS011;20166;51.738;7.158;2023-08-06T07:42:33;8.73;;;5.87;;
33876;SDS011;20166;51.738;7.158;2023-08-06T07:45:21;10.37;;;5.90;;
33876;SDS011;20166;51.738;7.158;2023-08-06T07:48:08;10.63;;;6.57;;
33876;SDS011;20166;51.738;7.158;2023-08-06T07:50:54;10.00;;;6.20;;
33876;SDS011;20166;51.738;7.158;2023-08-06T07:53:41;10.50;;;6.20;;
33876;SDS011;20166;51.738;7.158;2023-08-06T07:56:27;11.27;;;6.33;;
33876;SDS011;20166;51.738;7.158;2023-08-06T07:59:14;9.33;;;6.43;;
33876;SDS011;20166;51.738;7.158;2023-08-06T08:02:02;9.70;;;6.97;;
33876;SDS011;20166;51.738;7.158;2023-08-06T08:04:49;12.30;;;6.50;;
33876;SDS011;20166;51.738;7.158;2023-08-06T08:07:36;9.13;;;6.17;;
33876;SDS011;20166;51.738;7.158;2023-08-06T08:10:22;8.33;;;6.67;;
33876;SDS011;20166;51.738;7.158;2023-08-06T08:13:09;9.23;;;7.57;;
33876;SDS011;20166;51.738;7.158;2023-08-06T08:15:58;8.77;;;7.00;;
33876;SDS011;20166;51.738;7.158;2023-08-06T08:18:46;8.73;;;6.37;;
33876;SDS011;20166;51.738;7.158;2023-08-06T08:21:33;9.80;;;7.07;;
33876;SDS011;20166;51.738;7.158;2023-08-06T08:24:19;7.50;;;6.50;;
33876;SDS011;20166;51.738;7.158;2023-08-06T08:27:09;9.43;;;6.90;;
33876;SDS011;20166;51.738;7.158;2023-08-06T08:29:55;7.67;;;6.50;;
33876;SDS011;20166;51.738;7.158;2023-08-06T08:32:41;7.73;;;6.80;;
33876;SDS011;20166;51.738;7.158;2023-08-06T08:35:29;9.63;;;6.77;;
33876;SDS011;20166;51.738;7.158;2023-08-06T08:38:16;9.10;;;6.33;;
33876;SDS011;20166;51.738;7.158;2023-08-06T08:41:02;8.23;;;6.07;;
33876;SDS011;20166;51.738;7.158;2023-08-06T08:43:49;8.13;;;6.30;;
33876;SDS011;20166;51.738;7.158;2023-08-06T08:46:37;6.13;;;5.53;;
33876;SDS011;20166;51.738;7.158;2023-08-06T08:49:26;6.57;;;5.30;;
33876;SDS011;20166;51.738;7.158;2023-08-06T08:52:16;5.70;;;5.10;;
33876;SDS011;20166;51.738;7.158;2023-08-06T08:55:04;5.60;;;5.00;;
33876;SDS011;20166;51.738;7.158;2023-08-06T08:57:52;7.67;;;5.57;;
33876;SDS011;20166;51.738;7.158;2023-08-06T09:00:38;5.73;;;4.90;;
33876;SDS011;20166;51.738;7.158;2023-08-06T09:03:27;9.43;;;5.43;;
33876;SDS011;20166;51.738;7.158;2023-08-06T09:06:13;6.87;;;4.90;;
33876;SDS011;20166;51.738;7.158;2023-08-06T09:09:06;7.20;;;5.33;;
33876;SDS011;20166;51.738;7.158;2023-08-06T09:11:55;5.40;;;4.90;;
33876;SDS011;20166;51.738;7.158;2023-08-06T09:14:46;5.53;;;4.60;;
33876;SDS011;20166;51.738;7.158;2023-08-06T09:17:33;7.47;;;5.30;;
33876;SDS011;20166;51.738;7.158;2023-08-06T09:20:19;6.47;;;4.80;;
33876;SDS011;20166;51.738;7.158;2023-08-06T09:23:07;5.73;;;5.20;;
33876;SDS011;20166;51.738;7.158;2023-08-06T09:25:55;6.07;;;4.90;;
33876;SDS011;20166;51.738;7.158;2023-08-06T09:28:42;5.97;;;5.20;;
33876;SDS011;20166;51.738;7.158;2023-08-06T09:31:32;6.33;;;4.80;;
33876;SDS011;20166;51.738;7.158;2023-08-06T09:34:19;10.70;;;4.80;;
33876;SDS011;20166;51.738;7.158;2023-08-06T09:37:08;4.30;;;3.90;;
33876;SDS011;20166;51.738;7.158;2023-08-06T09:39:55;5.30;;;3.90;;
33876;SDS011;20166;51.738;7.158;2023-08-06T09:42:43;4.17;;;3.73;;
33876;SDS011;20166;51.738;7.158;2023-08-06T09:45:31;4.53;;;3.50;;
33876;SDS011;20166;51.738;7.158;2023-08-06T09:48:19;6.20;;;3.77;;
33876;SDS011;20166;51.738;7.158;2023-08-06T09:51:10;3.97;;;3.57;;
33876;SDS011;20166;51.738;7.158;2023-08-06T09:53:59;4.33;;;3.90;;
33876;SDS011;20166;51.738;7.158;2023-08-06T09:57:05;5.20;;;3.90;;
33876;SDS011;20166;51.738;7.158;2023-08-06T09:59:53;4.60;;;3.50;;
33876;SDS011;20166;51.738;7.158;2023-08-06T10:02:40;4.30;;;3.90;;
33876;SDS011;20166;51.738;7.158;2023-08-06T10:05:27;4.13;;;3.73;;
33876;SDS011;20166;51.738;7.158;2023-08-06T10:08:15;5.23;;;4.17;;
33876;SDS011;20166;51.738;7.158;2023-08-06T10:11:02;4.47;;;4.07;;
33876;SDS011;20166;51.738;7.158;2023-08-06T10:13:50;4.97;;;4.47;;
33876;SDS011;20166;51.738;7.158;2023-08-06T10:16:41;5.33;;;4.47;;
33876;SDS011;20166;51.738;7.158;2023-08-06T10:19:28;5.07;;;4.63;;
33876;SDS011;20166;51.738;7.158;2023-08-06T10:22:17;7.43;;;4.37;;
33876;SDS011;20166;51.738;7.158;2023-08-06T10:25:04;5.17;;;4.67;;
33876;SDS011;20166;51.738;7.158;2023-08-06T10:27:54;7.10;;;4.40;;
33876;SDS011;20166;51.738;7.158;2023-08-06T10:30:41;6.53;;;4.60;;
33876;SDS011;20166;51.738;7.158;2023-08-06T10:33:41;7.73;;;4.53;;
33876;SDS011;20166;51.738;7.158;2023-08-06T10:36:29;6.03;;;4.00;;
33876;SDS011;20166;51.738;7.158;2023-08-06T10:39:17;4.93;;;4.10;;
33876;SDS011;20166;51.738;7.158;2023-08-06T10:42:19;4.47;;;4.07;;
33876;SDS011;20166;51.738;7.158;2023-08-06T10:45:16;4.97;;;4.30;;
33876;SDS011;20166;51.738;7.158;2023-08-06T10:48:04;4.57;;;3.97;;
33876;SDS011;20166;51.738;7.158;2023-08-06T10:50:52;7.23;;;4.43;;
33876;SDS011;20166;51.738;7.158;2023-08-06T10:53:41;5.87;;;4.53;;
33876;SDS011;20166;51.738;7.158;2023-08-06T10:56:28;5.50;;;5.00;;
33876;SDS011;20166;51.738;7.158;2023-08-06T10:59:16;6.00;;;5.20;;
33876;SDS011;20166;51.738;7.158;2023-08-06T11:02:02;5.40;;;4.63;;
33876;SDS011;20166;51.738;7.158;2023-08-06T11:04:49;5.90;;;5.27;;
33876;SDS011;20166;51.738;7.158;2023-08-06T11:07:38;7.47;;;5.23;;
33876;SDS011;20166;51.738;7.158;2023-08-06T11:10:25;6.20;;;5.60;;
33876;SDS011;20166;51.738;7.158;2023-08-06T11:13:11;5.67;;;5.17;;
33876;SDS011;20166;51.738;7.158;2023-08-06T11:16:02;6.20;;;5.60;;
33876;SDS011;20166;51.738;7.158;2023-08-06T11:18:49;6.57;;;5.50;;
33876;SDS011;20166;51.738;7.158;2023-08-06T11:21:36;6.60;;;5.60;;
33876;SDS011;20166;51.738;7.158;2023-08-06T11:24:24;6.60;;;5.27;;
33876;SDS011;20166;51.738;7.158;2023-08-06T11:27:11;6.83;;;5.50;;
33876;SDS011;20166;51.738;7.158;2023-08-06T11:29:59;8.53;;;5.73;;
33876;SDS011;20166;51.738;7.158;2023-08-06T11:32:47;5.87;;;5.23;;
33876;SDS011;20166;51.738;7.158;2023-08-06T11:35:34;6.97;;;5.70;;
33876;SDS011;20166;51.738;7.158;2023-08-06T11:38:20;5.47;;;4.97;;
33876;SDS011;20166;51.738;7.158;2023-08-06T11:41:08;6.67;;;5.17;;
33876;SDS011;20166;51.738;7.158;2023-08-06T11:43:55;5.40;;;4.90;;
33876;SDS011;20166;51.738;7.158;2023-08-06T11:46:51;6.07;;;4.90;;
33876;SDS011;20166;51.738;7.158;2023-08-06T11:49:39;5.20;;;4.70;;
33876;SDS011;20166;51.738;7.158;2023-08-06T11:52:26;6.40;;;4.50;;
33876;SDS011;20166;51.738;7.158;2023-08-06T11:55:14;4.87;;;4.30;;
33876;SDS011;20166;51.738;7.158;2023-08-06T11:58:03;4.67;;;4.00;;
33876;SDS011;20166;51.738;7.158;2023-08-06T12:00:50;5.30;;;4.33;;
33876;SDS011;20166;51.738;7.158;2023-08-06T12:03:38;4.83;;;4.10;;
33876;SDS011;20166;51.738;7.158;2023-08-06T12:06:26;4.40;;;3.97;;
33876;SDS011;20166;51.738;7.158;2023-08-06T12:09:13;4.50;;;3.97;;
33876;SDS011;20166;51.738;7.158;2023-08-06T12:12:02;4.27;;;3.87;;
33876;SDS011;20166;51.738;7.158;2023-08-06T12:14:50;4.70;;;3.87;;
33876;SDS011;20166;51.738;7.158;2023-08-06T12:17:37;4.73;;;3.60;;
33876;SDS011;20166;51.738;7.158;2023-08-06T12:20:24;3.60;;;3.30;;
33876;SDS011;20166;51.738;7.158;2023-08-06T12:23:11;4.37;;;3.33;;
33876;SDS011;20166;51.738;7.158;2023-08-06T12:26:00;3.77;;;3.37;;
33876;SDS011;20166;51.738;7.158;2023-08-06T12:28:46;3.90;;;3.10;;
33876;SDS011;20166;51.738;7.158;2023-08-06T12:31:35;4.90;;;3.33;;
33876;SDS011;20166;51.738;7.158;2023-08-06T12:34:23;3.63;;;3.33;;
33876;SDS011;20166;51.738;7.158;2023-08-06T12:37:13;4.53;;;3.40;;
33876;SDS011;20166;51.738;7.158;2023-08-06T12:39:59;4.00;;;3.60;;
33876;SDS011;20166;51.738;7.158;2023-08-06T12:43:05;5.10;;;3.67;;
33876;SDS011;20166;51.738;7.158;2023-08-06T12:45:52;4.20;;;3.30;;
33876;SDS011;20166;51.738;7.158;2023-08-06T12:48:39;4.73;;;4.00;;
33876;SDS011;20166;51.738;7.158;2023-08-06T12:51:26;4.43;;;3.93;;
33876;SDS011;20166;51.738;7.158;2023-08-06T12:54:12;3.70;;;3.40;;
33876;SDS011;20166;51.738;7.158;2023-08-06T12:56:59;3.37;;;3.07;;
33876;SDS011;20166;51.738;7.158;2023-08-06T12:59:45;3.37;;;3.07;;
33876;SDS011;20166;51.738;7.158;2023-08-06T13:02:33;3.40;;;2.63;;
33876;SDS011;20166;51.738;7.158;2023-08-06T13:05:20;3.63;;;2.47;;
33876;SDS011;20166;51.738;7.158;2023-08-06T13:08:07;2.40;;;2.20;;
33876;SDS011;20166;51.738;7.158;2023-08-06T13:10:53;2.87;;;2.30;;
33876;SDS011;20166;51.738;7.158;2023-08-06T13:13:40;2.10;;;1.90;;
33876;SDS011;20166;51.738;7.158;2023-08-06T13:16:27;2.77;;;2.03;;
33876;SDS011;20166;51.738;7.158;2023-08-06T13:19:13;1.70;;;1.40;;
33876;SDS011;20166;51.738;7.158;2023-08-06T13:22:02;1.33;;;1.23;;
33876;SDS011;20166;51.738;7.158;2023-08-06T13:24:51;2.00;;;1.37;;
33876;SDS011;20166;51.738;7.158;2023-08-06T13:27:38;1.70;;;1.57;;
33876;SDS011;20166;51.738;7.158;2023-08-06T13:30:24;1.40;;;1.20;;
33876;SDS011;20166;51.738;7.158;2023-08-06T13:33:11;1.20;;;1.10;;
33876;SDS011;20166;51.738;7.158;2023-08-06T13:35:57;0.90;;;0.90;;
33876;SDS011;20166;51.738;7.158;2023-08-06T13:38:44;5.13;;;1.00;;
33876;SDS011;20166;51.738;7.158;2023-08-06T13:41:31;0.97;;;0.97;;
33876;SDS011;20166;51.738;7.158;2023-08-06T13:44:17;0.73;;;0.73;;
33876;SDS011;20166;51.738;7.158;2023-08-06T13:47:03;0.70;;;0.70;;
33876;SDS011;20166;51.738;7.158;2023-08-06T13:49:49;0.77;;;0.77;;
33876;SDS011;20166;51.738;7.158;2023-08-06T13:52:36;0.80;;;0.80;;
33876;SDS011;20166;51.738;7.158;2023-08-06T13:55:24;1.00;;;0.90;;
33876;SDS011;20166;51.738;7.158;2023-08-06T13:58:11;1.00;;;0.90;;
33876;SDS011;20166;51.738;7.158;2023-08-06T14:00:58;1.10;;;1.00;;
33876;SDS011;20166;51.738;7.158;2023-08-06T14:03:44;1.60;;;1.10;;
33876;SDS011;20166;51.738;7.158;2023-08-06T14:06:31;1.37;;;1.20;;
33876;SDS011;20166;51.738;7.158;2023-08-06T14:09:18;1.30;;;1.20;;
33876;SDS011;20166;51.738;7.158;2023-08-06T14:12:06;1.47;;;1.37;;
33876;SDS011;20166;51.738;7.158;2023-08-06T14:14:53;1.77;;;1.27;;
33876;SDS011;20166;51.738;7.158;2023-08-06T14:17:39;1.67;;;1.40;;
33876;SDS011;20166;51.738;7.158;2023-08-06T14:20:25;1.77;;;1.33;;
33876;SDS011;20166;51.738;7.158;2023-08-06T14:23:11;1.63;;;1.53;;
33876;SDS011;20166;51.738;7.158;2023-08-06T14:25:58;1.53;;;1.30;;
33876;SDS011;20166;51.738;7.158;2023-08-06T14:28:45;1.70;;;1.43;;
33876;SDS011;20166;51.738;7.158;2023-08-06T14:31:32;1.70;;;1.40;;
33876;SDS011;20166;51.738;7.158;2023-08-06T14:34:18;1.63;;;1.13;;
33876;SDS011;20166;51.738;7.158;2023-08-06T14:37:05;1.27;;;1.17;;
33876;SDS011;20166;51.738;7.158;2023-08-06T14:39:51;2.30;;;1.00;;
33876;SDS011;20166;51.738;7.158;2023-08-06T14:42:38;1.23;;;1.13;;
33876;SDS011;20166;51.738;7.158;2023-08-06T14:45:26;1.17;;;1.07;;
33876;SDS011;20166;51.738;7.158;2023-08-06T14:48:13;1.30;;;1.10;;
33876;SDS011;20166;51.738;7.158;2023-08-06T14:50:59;4.40;;;1.40;;
33876;SDS011;20166;51.738;7.158;2023-08-06T14:53:45;1.37;;;1.27;;
33876;SDS011;20166;51.738;7.158;2023-08-06T14:56:32;3.60;;;1.23;;
33876;SDS011;20166;51.738;7.158;2023-08-06T14:59:18;1.43;;;1.30;;
33876;SDS011;20166;51.738;7.158;2023-08-06T15:02:06;2.17;;;1.40;;
33876;SDS011;20166;51.738;7.158;2023-08-06T15:04:52;1.73;;;1.63;;
33876;SDS011;20166;51.738;7.158;2023-08-06T15:07:38;1.63;;;1.53;;
33876;SDS011;20166;51.738;7.158;2023-08-06T15:10:25;2.00;;;1.80;;
33876;SDS011;20166;51.738;7.158;2023-08-06T15:13:12;2.23;;;1.90;;
33876;SDS011;20166;51.738;7.158;2023-08-06T15:15:59;1.90;;;1.70;;
33876;SDS011;20166;51.738;7.158;2023-08-06T15:18:46;1.83;;;1.63;;
33876;SDS011;20166;51.738;7.158;2023-08-06T15:21:33;2.13;;;1.87;;
33876;SDS011;20166;51.738;7.158;2023-08-06T15:24:20;1.90;;;1.70;;
33876;SDS011;20166;51.738;7.158;2023-08-06T15:27:07;1.83;;;1.73;;
33876;SDS011;20166;51.738;7.158;2023-08-06T15:29:53;2.10;;;1.90;;
33876;SDS011;20166;51.738;7.158;2023-08-06T15:32:40;2.50;;;2.30;;
33876;SDS011;20166;51.738;7.158;2023-08-06T15:35:30;5.50;;;2.23;;
33876;SDS011;20166;51.738;7.158;2023-08-06T15:38:16;3.17;;;2.73;;
33876;SDS011;20166;51.738;7.158;2023-08-06T15:41:03;4.87;;;2.70;;
33876;SDS011;20166;51.738;7.158;2023-08-06T15:43:50;4.10;;;2.97;;
33876;SDS011;20166;51.738;7.158;2023-08-06T15:46:36;4.90;;;3.20;;
33876;SDS011;20166;51.738;7.158;2023-08-06T15:49:22;4.43;;;3.10;;
33876;SDS011;20166;51.738;7.158;2023-08-06T15:52:10;3.57;;;2.87;;
33876;SDS011;20166;51.738;7.158;2023-08-06T15:54:56;3.30;;;3.00;;
33876;SDS011;20166;51.738;7.158;2023-08-06T15:57:48;4.33;;;3.00;;
33876;SDS011;20166;51.738;7.158;2023-08-06T16:00:34;3.27;;;2.80;;
33876;SDS011;20166;51.738;7.158;2023-08-06T16:03:21;4.13;;;2.70;;
33876;SDS011;20166;51.738;7.158;2023-08-06T16:06:07;4.43;;;2.90;;
33876;SDS011;20166;51.738;7.158;2023-08-06T16:08:55;3.97;;;3.10;;
33876;SDS011;20166;51.738;7.158;2023-08-06T16:11:43;3.20;;;2.90;;
33876;SDS011;20166;51.738;7.158;2023-08-06T16:14:30;3.43;;;2.87;;
33876;SDS011;20166;51.738;7.158;2023-08-06T16:17:17;5.33;;;3.40;;
33876;SDS011;20166;51.738;7.158;2023-08-06T16:20:07;4.03;;;2.87;;
33876;SDS011;20166;51.738;7.158;2023-08-06T16:22:55;4.73;;;3.00;;
33876;SDS011;20166;51.738;7.158;2023-08-06T16:25:42;4.17;;;3.00;;
33876;SDS011;20166;51.738;7.158;2023-08-06T16:28:32;4.50;;;3.30;;
33876;SDS011;20166;51.738;7.158;2023-08-06T16:31:19;3.53;;;3.10;;
33876;SDS011;20166;51.738;7.158;2023-08-06T16:34:06;4.37;;;3.00;;
33876;SDS011;20166;51.738;7.158;2023-08-06T16:36:53;3.23;;;2.93;;
33876;SDS011;20166;51.738;7.158;2023-08-06T16:39:40;6.10;;;3.60;;
33876;SDS011;20166;51.738;7.158;2023-08-06T16:42:27;5.43;;;3.80;;
33876;SDS011;20166;51.738;7.158;2023-08-06T16:45:14;5.60;;;3.30;;